Terminal Aerodrome Forecast
Issued by NWS

Home | Current Version | Previous Version | Text Only | Print | Product List | Glossary On
Versions: 1 2 3 4 5 6 7 8 9 10 11 12 13 14 15 16 17
494
FTPA31 PHFO 241139
TAFHLI
TAF
PHLI 241139Z 2412/2512 02018G25KT P6SM -RA FEW010 BKN015 BKN045
     FM242000 09012G20KT P6SM VCSH SCT025 BKN045
     FM250600 15011G18KT P6SM VCSH SCT025 BKN045=

USA.gov is the U.S. government's official web portal to all federal, state and local government web resources and services.